Time;durP1;ratioP1;P1;durP2;ratioP2;P2;SDS_P1;SDS_P2;PMS_P1;PMS_P2;Temp;Humidity;BMP_temperature;BMP_pressure;BME280_temperature;BME280_humidity;BME280_pressure;Samples;Min_cycle;Max_cycle;Signal;HPM_P1;HPM_P2
2022/06/28 00:00:10;;;;;;;2.27;2.07;;;18.30;99.90;;;;;;5116111;28;20482;-57
2022/06/28 00:02:37;;;;;;;2.53;1.90;;;18.40;99.90;;;;;;5116382;28;20473;-57
2022/06/28 00:05:09;;;;;;;4.03;1.73;;;18.40;99.90;;;;;;5115977;28;20888;-57
2022/06/28 00:07:36;;;;;;;3.20;2.00;;;18.40;99.90;;;;;;5116290;28;20434;-57
2022/06/28 00:10:04;;;;;;;1.70;1.60;;;18.40;99.90;;;;;;5116078;28;20457;-56
2022/06/28 00:12:31;;;;;;;2.47;1.87;;;18.40;99.90;;;;;;5115326;28;20874;-57
2022/06/28 00:17:43;;;;;;;2.27;2.00;;;18.50;99.90;;;;;;5115988;28;20409;-58
2022/06/28 00:20:13;;;;;;;1.90;1.80;;;18.40;99.90;;;;;;5115895;28;20850;-57
2022/06/28 00:22:40;;;;;;;1.90;1.80;;;18.40;99.90;;;;;;5115881;28;20935;-57
2022/06/28 00:25:08;;;;;;;1.63;1.53;;;18.40;99.90;;;;;;5115601;28;20964;-57
2022/06/28 00:27:35;;;;;;;4.57;2.30;;;18.40;99.90;;;;;;5116050;28;20470;-57
2022/06/28 00:30:03;;;;;;;1.90;1.80;;;18.40;99.90;;;;;;5115921;28;20469;-57
2022/06/28 00:32:32;;;;;;;2.73;1.70;;;18.40;99.90;;;;;;5115638;28;20541;-57
2022/06/28 00:34:59;;;;;;;1.70;1.60;;;18.40;99.90;;;;;;5115841;28;20541;-57
2022/06/28 00:37:27;;;;;;;3.17;1.80;;;18.40;99.90;;;;;;5115470;28;20493;-57
2022/06/28 00:39:55;;;;;;;2.17;1.40;;;18.30;99.90;;;;;;5115364;28;20494;-57
2022/06/28 00:42:23;;;;;;;4.10;1.73;;;18.40;99.90;;;;;;5115207;28;20490;-57
2022/06/28 00:44:51;;;;;;;3.77;1.90;;;18.50;99.90;;;;;;5115382;28;20534;-57
2022/06/28 00:47:18;;;;;;;2.57;1.80;;;18.40;99.90;;;;;;5115220;28;20499;-57
2022/06/28 00:49:46;;;;;;;3.33;1.77;;;18.40;99.90;;;;;;5115565;28;20469;-57
2022/06/28 00:52:14;;;;;;;1.70;1.60;;;18.40;99.90;;;;;;5115118;28;20820;-57
2022/06/28 00:54:43;;;;;;;2.47;2.23;;;18.20;99.90;;;;;;5115200;28;20445;-57
2022/06/28 00:57:10;;;;;;;2.90;2.13;;;18.20;99.90;;;;;;5115279;28;20446;-57
2022/06/28 00:59:37;;;;;;;4.33;1.97;;;18.20;99.90;;;;;;5114968;28;20482;-57
2022/06/28 01:02:05;;;;;;;6.00;2.17;;;18.20;99.90;;;;;;5114921;28;20813;-57
2022/06/28 01:04:32;;;;;;;3.00;1.83;;;18.10;99.90;;;;;;5114879;28;20537;-57
2022/06/28 01:06:59;;;;;;;1.77;1.67;;;18.00;99.90;;;;;;5114801;28;20446;-57
2022/06/28 01:09:27;;;;;;;2.20;2.03;;;;;;;;;;5114815;28;20469;-57
2022/06/28 01:11:55;;;;;;;1.87;1.63;;;18.00;99.90;;;;;;5114698;28;20537;-56
2022/06/28 01:14:25;;;;;;;2.57;1.80;;;17.90;99.90;;;;;;5114578;28;20887;-57
2022/06/28 01:16:53;;;;;;;1.90;1.80;;;17.90;99.90;;;;;;5114605;28;20446;-57
2022/06/28 01:19:20;;;;;;;3.00;2.00;;;17.90;99.90;;;;;;5114907;28;20515;-58
2022/06/28 01:21:49;;;;;;;4.10;2.20;;;17.90;99.90;;;;;;5114602;28;20457;-57
2022/06/28 01:24:18;;;;;;;3.43;2.20;;;18.00;99.90;;;;;;5114973;28;20450;-57
2022/06/28 01:26:46;;;;;;;3.83;1.80;;;17.90;99.90;;;;;;5114440;28;21040;-57
2022/06/28 01:29:13;;;;;;;2.57;1.90;;;17.90;99.90;;;;;;5114424;28;20494;-57
2022/06/28 01:31:40;;;;;;;2.90;2.20;;;17.90;99.90;;;;;;5114317;28;20448;-57
2022/06/28 01:34:09;;;;;;;2.00;1.80;;;17.90;99.90;;;;;;5114282;28;20906;-58
2022/06/28 01:36:36;;;;;;;2.67;2.13;;;17.90;99.90;;;;;;5114559;28;20469;-58
2022/06/28 01:39:04;;;;;;;2.80;1.90;;;17.80;99.90;;;;;;5114511;28;20451;-58
2022/06/28 01:41:36;;;;;;;5.00;2.30;;;17.80;99.90;;;;;;5114001;28;20446;-58
2022/06/28 01:44:07;;;;;;;9.77;2.20;;;17.80;99.90;;;;;;5114474;28;20429;-57
2022/06/28 01:46:38;;;;;;;3.60;2.07;;;17.80;99.90;;;;;;5114030;28;20561;-58
2022/06/28 01:49:06;;;;;;;2.43;2.23;;;17.80;99.90;;;;;;5114419;28;20454;-57
2022/06/28 01:51:34;;;;;;;2.00;1.90;;;17.90;99.90;;;;;;5113967;28;20478;-57
2022/06/28 01:54:01;;;;;;;5.37;2.80;;;17.90;99.90;;;;;;5114388;28;20457;-57
2022/06/28 01:56:28;;;;;;;2.40;2.20;;;17.90;99.90;;;;;;5113886;28;20447;-57
2022/06/28 01:58:57;;;;;;;6.40;1.93;;;17.90;99.90;;;;;;5114117;27;20445;-57
2022/06/28 02:01:24;;;;;;;2.50;2.30;;;17.90;99.90;;;;;;5114180;28;20442;-57
2022/06/28 02:03:52;;;;;;;2.00;1.90;;;17.90;99.90;;;;;;5114192;28;20451;-57
2022/06/28 02:06:19;;;;;;;3.80;2.33;;;17.90;99.90;;;;;;5113708;28;20474;-57
2022/06/28 02:08:46;;;;;;;2.47;2.27;;;17.90;99.90;;;;;;5113980;28;20480;-57
2022/06/28 02:11:13;;;;;;;2.77;1.90;;;17.80;99.90;;;;;;5114073;28;20447;-57
2022/06/28 02:13:40;;;;;;;2.47;2.27;;;17.70;99.90;;;;;;5113720;28;20573;-57
2022/06/28 02:16:09;;;;;;;2.40;1.90;;;17.80;99.90;;;;;;5113268;28;20453;-57
2022/06/28 02:18:36;;;;;;;4.17;2.00;;;17.80;99.90;;;;;;5113503;28;20943;-57
2022/06/28 02:21:03;;;;;;;2.03;1.93;;;17.70;99.90;;;;;;5113764;28;20486;-57
2022/06/28 02:23:31;;;;;;;3.33;1.87;;;17.70;99.90;;;;;;5113642;28;20949;-57
2022/06/28 02:25:58;;;;;;;2.30;2.07;;;17.70;99.90;;;;;;5113608;28;20533;-57
2022/06/28 02:28:25;;;;;;;6.03;2.47;;;17.80;99.90;;;;;;5113869;28;20517;-57
2022/06/28 02:30:52;;;;;;;2.00;1.90;;;17.90;99.90;;;;;;5113830;28;20459;-57
2022/06/28 02:33:21;;;;;;;4.63;2.00;;;17.90;99.90;;;;;;5113653;28;20484;-57
2022/06/28 02:41:32;;;;;;;3.93;2.20;;;17.70;99.90;;;;;;5070865;28;20425;-57
2022/06/28 02:44:00;;;;;;;4.03;2.20;;;17.60;99.90;;;;;;5070857;28;20417;-57
2022/06/28 02:46:27;;;;;;;2.10;2.00;;;17.50;99.90;;;;;;5089567;28;20438;-57
2022/06/28 02:48:56;;;;;;;3.10;2.10;;;17.50;99.90;;;;;;5113270;28;20930;-58
2022/06/28 02:51:24;;;;;;;2.30;2.10;;;17.40;99.90;;;;;;5113711;28;20446;-57
2022/06/28 02:53:52;;;;;;;5.50;2.80;;;17.30;99.90;;;;;;5113530;28;20476;-57
2022/06/28 02:56:19;;;;;;;5.03;2.30;;;17.30;99.90;;;;;;5113676;28;20530;-57
2022/06/28 02:58:47;;;;;;;3.50;2.27;;;17.20;99.90;;;;;;5113097;28;20438;-57
2022/06/28 03:01:14;;;;;;;2.73;2.50;;;17.20;99.90;;;;;;5113494;28;20535;-57
2022/06/28 03:03:41;;;;;;;3.73;2.63;;;17.20;99.90;;;;;;5113032;28;20457;-57
2022/06/28 03:06:10;;;;;;;2.20;2.00;;;17.20;99.90;;;;;;5113197;28;20944;-57
2022/06/28 03:08:38;;;;;;;3.23;2.30;;;17.30;99.90;;;;;;5113432;28;20533;-57
2022/06/28 03:11:05;;;;;;;2.73;2.30;;;17.20;99.90;;;;;;5113472;28;20546;-57
2022/06/28 03:13:32;;;;;;;2.83;2.63;;;17.20;99.90;;;;;;5113202;28;20847;-57
2022/06/28 03:15:59;;;;;;;2.57;2.30;;;17.10;99.90;;;;;;5113339;28;20848;-57
2022/06/28 03:18:27;;;;;;;4.37;2.70;;;17.10;99.90;;;;;;5113450;28;20444;-57
2022/06/28 03:20:54;;;;;;;3.30;2.40;;;17.10;99.90;;;;;;5112848;28;20573;-57
2022/06/28 03:23:23;;;;;;;2.40;2.20;;;17.10;99.90;;;;;;5113374;28;20442;-57
2022/06/28 03:25:50;;;;;;;2.50;2.30;;;17.10;99.90;;;;;;5112873;28;20537;-57
2022/06/28 03:28:17;;;;;;;2.70;2.50;;;17.00;99.90;;;;;;5114464;28;20449;-57
2022/06/28 03:30:44;;;;;;;4.33;2.20;;;17.00;99.90;;;;;;5116671;28;21008;-57
2022/06/28 03:33:11;;;;;;;2.73;2.33;;;17.10;99.90;;;;;;5116817;28;20533;-57
2022/06/28 03:35:38;;;;;;;2.43;2.23;;;17.10;99.90;;;;;;5116915;28;20452;-57
2022/06/28 03:38:06;;;;;;;2.47;2.27;;;17.10;99.90;;;;;;5116807;28;20430;-57
2022/06/28 03:40:34;;;;;;;2.60;2.40;;;17.10;99.90;;;;;;5116442;28;20836;-57
2022/06/28 03:43:02;;;;;;;4.47;2.63;;;17.10;99.90;;;;;;5116487;28;20553;-56
2022/06/28 03:45:29;;;;;;;4.13;2.63;;;17.20;99.90;;;;;;5116461;28;20541;-56
2022/06/28 03:47:57;;;;;;;2.47;2.10;;;17.20;99.90;;;;;;5116820;28;20474;-57
2022/06/28 03:50:24;;;;;;;3.13;2.83;;;17.20;99.90;;;;;;5116610;28;20466;-57
2022/06/28 03:52:52;;;;;;;2.83;2.27;;;17.30;99.90;;;;;;5116740;28;20471;-57
2022/06/28 03:55:19;;;;;;;7.33;2.47;;;17.20;99.90;;;;;;5116348;28;20446;-57
2022/06/28 03:57:48;;;;;;;3.20;2.20;;;17.30;99.90;;;;;;5116360;27;20542;-57
2022/06/28 04:00:15;;;;;;;2.77;2.57;;;17.30;99.90;;;;;;5116082;28;20577;-57
2022/06/28 04:02:43;;;;;;;2.47;2.27;;;17.20;99.90;;;;;;5116760;28;20586;-57
2022/06/28 04:05:10;;;;;;;3.03;2.77;;;17.20;99.90;;;;;;5115969;28;20485;-57
2022/06/28 04:07:37;;;;;;;3.10;2.60;;;17.20;99.90;;;;;;5116109;28;20446;-57
2022/06/28 04:10:05;;;;;;;3.73;2.63;;;17.20;99.90;;;;;;5116252;28;20490;-57
2022/06/28 04:12:32;;;;;;;2.33;2.13;;;17.40;99.90;;;;;;5116299;28;20806;-56
2022/06/28 04:15:01;;;;;;;4.47;2.67;;;17.40;99.90;;;;;;5116051;28;20435;-57
2022/06/28 04:17:28;;;;;;;5.03;2.93;;;17.50;99.90;;;;;;5116614;28;20448;-57
2022/06/28 04:19:55;;;;;;;5.17;3.17;;;17.50;99.90;;;;;;5116194;28;20500;-57
2022/06/28 04:22:22;;;;;;;3.70;2.43;;;17.50;99.90;;;;;;5116003;28;20890;-57
2022/06/28 04:24:50;;;;;;;3.00;2.70;;;17.40;99.90;;;;;;5116215;28;20451;-57
2022/06/28 04:27:17;;;;;;;5.50;2.37;;;17.40;99.90;;;;;;5115941;28;20450;-58
2022/06/28 04:29:44;;;;;;;5.40;2.97;;;17.40;99.90;;;;;;5115595;28;20987;-57
2022/06/28 04:32:13;;;;;;;3.20;2.90;;;17.40;99.90;;;;;;5115451;28;20546;-57
2022/06/28 04:34:40;;;;;;;3.03;2.33;;;17.50;99.90;;;;;;5115513;28;20534;-57
2022/06/28 04:37:07;;;;;;;5.33;2.87;;;17.60;99.90;;;;;;5115453;28;20933;-57
2022/06/28 04:39:34;;;;;;;3.47;3.03;;;17.60;99.90;;;;;;5114773;28;20558;-57
2022/06/28 04:42:02;;;;;;;3.40;3.10;;;17.70;99.90;;;;;;5115035;28;20996;-57
2022/06/28 04:44:30;;;;;;;2.70;2.50;;;17.70;99.90;;;;;;5115359;28;21057;-57
2022/06/28 04:46:57;;;;;;;2.97;2.60;;;17.70;99.90;;;;;;5115143;28;20537;-57
2022/06/28 04:49:25;;;;;;;3.80;3.50;;;17.70;99.90;;;;;;5115514;28;20469;-57
2022/06/28 04:51:52;;;;;;;3.40;3.10;;;17.90;99.90;;;;;;5115114;28;20439;-57
2022/06/28 04:54:20;;;;;;;7.23;3.20;;;17.80;99.90;;;;;;5115176;28;20537;-57
2022/06/28 04:56:47;;;;;;;3.40;2.83;;;17.80;99.90;;;;;;5115333;28;20447;-57
2022/06/28 04:59:14;;;;;;;3.83;2.80;;;17.90;99.90;;;;;;5115000;28;21035;-57
2022/06/28 05:01:41;;;;;;;3.70;3.40;;;18.00;99.90;;;;;;5115044;28;20506;-57
2022/06/28 05:04:09;;;;;;;4.20;3.60;;;18.00;99.90;;;;;;5114924;28;20454;-57
2022/06/28 05:06:37;;;;;;;4.73;3.70;;;18.10;99.90;;;;;;5114811;28;20537;-57
2022/06/28 05:09:05;;;;;;;5.47;3.83;;;18.00;99.90;;;;;;5115119;28;20524;-57
2022/06/28 05:11:32;;;;;;;4.63;3.90;;;18.00;99.90;;;;;;5114543;28;20475;-57
2022/06/28 05:14:00;;;;;;;6.53;4.20;;;18.00;99.90;;;;;;5114549;28;20561;-57
2022/06/28 05:16:27;;;;;;;4.77;4.27;;;18.00;99.90;;;;;;5114496;28;20442;-57
2022/06/28 05:18:55;;;;;;;6.90;4.90;;;18.00;99.90;;;;;;5114529;28;20545;-57
2022/06/28 05:21:22;;;;;;;5.80;5.30;;;18.10;99.90;;;;;;5114678;28;20578;-57
2022/06/28 05:23:52;;;;;;;8.43;4.50;;;18.10;99.90;;;;;;5114166;27;20914;-57
2022/06/28 05:26:19;;;;;;;5.80;5.20;;;18.10;99.90;;;;;;5114811;28;20446;-57
2022/06/28 05:28:47;;;;;;;5.43;4.97;;;18.20;99.90;;;;;;5114646;28;20447;-57
2022/06/28 05:31:14;;;;;;;5.50;5.00;;;18.20;99.90;;;;;;5114638;28;20446;-57
2022/06/28 05:33:41;;;;;;;6.27;5.53;;;18.20;99.90;;;;;;5114175;28;20945;-57
2022/06/28 05:36:08;;;;;;;5.97;5.20;;;18.20;99.90;;;;;;5114459;28;20526;-57
2022/06/28 05:38:35;;;;;;;5.90;5.30;;;18.20;99.90;;;;;;5114456;28;20526;-57
2022/06/28 05:41:04;;;;;;;5.63;5.13;;;18.30;99.90;;;;;;5114013;28;20521;-58
2022/06/28 05:43:31;;;;;;;7.10;6.40;;;18.50;99.90;;;;;;5114290;28;20557;-58
2022/06/28 05:45:59;;;;;;;5.83;5.23;;;18.40;99.90;;;;;;5114281;28;20438;-57
2022/06/28 05:48:26;;;;;;;11.10;7.07;;;18.40;99.90;;;;;;5113983;28;20949;-57
2022/06/28 05:50:53;;;;;;;6.17;5.67;;;18.50;99.90;;;;;;5114009;28;20549;-57
2022/06/28 05:53:20;;;;;;;7.73;6.47;;;18.50;99.90;;;;;;5113514;28;20462;-57
2022/06/28 05:55:48;;;;;;;7.27;6.57;;;18.60;99.90;;;;;;5114256;28;20446;-57
2022/06/28 05:58:17;;;;;;;6.77;6.17;;;18.70;99.90;;;;;;5113996;28;20483;-57
2022/06/28 06:00:44;;;;;;;6.37;5.87;;;18.70;99.90;;;;;;5114223;28;20489;-57
2022/06/28 06:03:11;;;;;;;6.50;6.00;;;18.70;99.90;;;;;;5113835;28;20447;-57
2022/06/28 06:05:38;;;;;;;7.77;7.07;;;18.70;99.90;;;;;;5113911;27;20451;-58
2022/06/28 06:08:06;;;;;;;7.13;6.53;;;18.80;99.90;;;;;;5113631;28;20568;-57
2022/06/28 06:10:33;;;;;;;7.23;6.60;;;18.90;99.90;;;;;;5113634;28;20466;-58
2022/06/28 06:13:02;;;;;;;7.33;6.63;;;19.00;99.90;;;;;;5113251;28;20478;-58
2022/06/28 06:15:31;;;;;;;7.87;7.17;;;19.10;99.90;;;;;;5114035;28;20451;-58
2022/06/28 06:17:58;;;;;;;6.77;6.20;;;19.00;99.90;;;;;;5113625;28;20443;-58
2022/06/28 06:20:25;;;;;;;7.10;6.40;;;19.10;99.90;;;;;;5113512;28;21056;-58
2022/06/28 06:22:53;;;;;;;6.63;6.03;;;19.20;99.90;;;;;;5113552;28;20450;-59
2022/06/28 06:25:20;;;;;;;7.47;6.77;;;19.30;99.90;;;;;;5113651;28;20443;-58
2022/06/28 06:27:47;;;;;;;6.70;6.10;;;19.40;99.90;;;;;;5113929;28;20452;-59
2022/06/28 06:30:15;;;;;;;7.50;6.27;;;19.60;99.90;;;;;;5113410;28;20473;-56
2022/06/28 06:32:44;;;;;;;7.00;6.40;;;19.60;99.90;;;;;;5113411;28;20438;-57
2022/06/28 06:35:11;;;;;;;6.37;5.70;;;19.60;99.90;;;;;;5113132;28;20525;-58
2022/06/28 06:37:38;;;;;;;6.50;6.00;;;19.60;99.90;;;;;;5113731;28;20499;-57
2022/06/28 06:40:06;;;;;;;7.53;6.80;;;19.40;99.90;;;;;;5113213;28;20463;-58
2022/06/28 06:42:34;;;;;;;7.73;6.87;;;19.40;99.90;;;;;;5113429;28;20522;-58
2022/06/28 06:45:01;;;;;;;10.87;6.90;;;19.30;99.90;;;;;;5113417;28;21115;-58
2022/06/28 06:47:28;;;;;;;7.30;6.60;;;19.30;99.90;;;;;;5113632;28;20446;-57
2022/06/28 06:49:57;;;;;;;7.53;6.93;;;19.20;99.90;;;;;;5113381;28;20827;-57
2022/06/28 06:52:24;;;;;;;7.20;6.60;;;19.30;99.90;;;;;;5113326;28;20852;-57
2022/06/28 06:54:51;;;;;;;8.00;7.30;;;19.10;99.90;;;;;;5113059;28;20537;-57
2022/06/28 06:57:18;;;;;;;6.70;6.10;;;19.10;99.90;;;;;;5113639;28;20529;-58
2022/06/28 06:59:45;;;;;;;7.87;7.10;;;19.10;99.90;;;;;;5113365;28;20889;-57
2022/06/28 07:02:13;;;;;;;6.67;6.07;;;19.00;99.90;;;;;;5113368;28;20606;-57
2022/06/28 07:04:40;;;;;;;7.07;6.47;;;18.80;99.90;;;;;;5116906;28;20465;-57
2022/06/28 07:07:09;;;;;;;9.73;6.50;;;18.80;99.90;;;;;;5117605;28;20776;-57
2022/06/28 07:09:36;;;;;;;7.47;6.77;;;18.80;99.90;;;;;;5117223;28;20492;-57
2022/06/28 07:12:04;;;;;;;8.03;7.20;;;18.80;99.90;;;;;;5117210;28;20499;-57
2022/06/28 07:14:31;;;;;;;8.43;7.77;;;18.60;99.90;;;;;;5116849;28;20474;-57
2022/06/28 07:16:58;;;;;;;10.20;7.70;;;18.50;99.90;;;;;;5117494;28;20446;-57
2022/06/28 07:19:26;;;;;;;9.87;7.20;;;18.40;99.90;;;;;;5117004;28;20466;-57
2022/06/28 07:21:53;;;;;;;9.43;8.40;;;18.40;99.90;;;;;;5117186;28;20570;-57
2022/06/28 07:24:22;;;;;;;8.90;8.10;;;18.30;99.90;;;;;;5116957;28;20431;-57
2022/06/28 07:26:49;;;;;;;7.87;7.17;;;18.30;99.90;;;;;;5116893;28;20529;-58
2022/06/28 07:29:16;;;;;;;8.57;7.87;;;18.40;99.90;;;;;;5117065;28;20470;-57
2022/06/28 07:31:44;;;;;;;7.77;7.07;;;18.70;99.90;;;;;;5117210;28;20491;-57
2022/06/28 07:34:12;;;;;;;10.70;7.63;;;18.80;99.90;;;;;;5117121;28;20488;-58
2022/06/28 07:36:40;;;;;;;9.43;8.43;;;19.00;99.90;;;;;;5116446;28;20442;-56
2022/06/28 07:39:07;;;;;;;13.30;7.60;;;19.10;99.90;;;;;;5116852;28;21019;-58
2022/06/28 07:41:36;;;;;;;7.90;7.07;;;19.10;99.90;;;;;;5116242;28;20517;-57
2022/06/28 07:44:03;;;;;;;8.33;7.63;;;19.30;99.90;;;;;;5116587;28;20423;-57
2022/06/28 07:46:30;;;;;;;7.73;7.03;;;19.30;99.90;;;;;;5116587;28;20787;-57
2022/06/28 07:48:58;;;;;;;8.27;7.30;;;19.40;99.90;;;;;;5116392;28;20945;-57
2022/06/28 07:54:10;;;;;;;7.73;7.07;;;19.70;99.90;;;;;;5116356;28;20405;-58
2022/06/28 07:56:39;;;;;;;7.67;6.97;;;19.90;99.90;;;;;;5116391;28;20474;-58
2022/06/28 07:59:06;;;;;;;7.40;6.73;;;20.00;99.90;;;;;;5116441;28;20449;-58
2022/06/28 08:01:33;;;;;;;7.90;7.30;;;20.20;99.90;;;;;;5116529;28;20833;-58
2022/06/28 08:04:00;;;;;;;7.90;7.10;;;20.60;99.90;;;;;;5116428;28;20541;-57
2022/06/28 08:06:27;;;;;;;7.63;6.93;;;20.70;99.90;;;;;;5116119;28;20478;-57
2022/06/28 08:08:54;;;;;;;7.40;6.70;;;20.50;99.90;;;;;;5116275;28;20511;-58
2022/06/28 08:11:22;;;;;;;7.27;6.67;;;20.50;99.90;;;;;;5115723;28;20563;-57
2022/06/28 08:13:52;;;;;;;9.73;6.80;;;20.70;99.90;;;;;;5109391;28;20574;-56
2022/06/28 08:16:19;;;;;;;6.27;5.67;;;20.90;99.90;;;;;;5111411;28;20457;-55
2022/06/28 08:18:46;;;;;;;5.63;5.13;;;21.00;99.90;;;;;;5115513;28;20537;-55
2022/06/28 08:21:14;;;;;;;5.30;4.90;;;21.10;99.90;;;;;;5115865;28;20454;-55
2022/06/28 08:23:41;;;;;;;6.27;5.77;;;21.40;99.90;;;;;;5115925;28;20447;-55
2022/06/28 08:26:08;;;;;;;6.07;5.57;;;21.40;99.90;;;;;;5115470;28;20534;-55
2022/06/28 08:28:35;;;;;;;5.97;5.47;;;22.20;99.90;;;;;;5115413;28;20996;-54
2022/06/28 08:31:04;;;;;;;5.33;4.93;;;22.10;99.90;;;;;;5115621;28;20879;-53
2022/06/28 08:33:31;;;;;;;5.73;5.23;;;22.90;99.90;;;;;;5115721;28;20474;-51
2022/06/28 08:35:58;;;;;;;6.40;5.30;;;22.60;99.90;;;;;;5115254;28;20442;-52
2022/06/28 08:38:25;;;;;;;5.70;5.20;;;22.70;99.90;;;;;;5115691;28;20554;-53
2022/06/28 08:40:54;;;;;;;6.50;5.17;;;22.80;99.90;;;;;;5115569;27;20815;-52
2022/06/28 08:43:22;;;;;;;5.60;3.43;;;22.70;99.90;;;;;;5115020;28;20486;-52
2022/06/28 08:45:49;;;;;;;5.07;4.67;;;23.40;99.90;;;;;;5115574;28;20446;-53
2022/06/28 08:48:24;;;;;;;4.70;4.30;;;23.70;99.90;;;;;;5115353;28;20478;-51
2022/06/28 08:50:53;;;;;;;4.33;3.90;;;22.20;99.90;;;;;;5115511;28;20458;-53
2022/06/28 08:53:22;;;;;;;5.40;3.90;;;23.50;99.90;;;;;;5115491;28;20523;-52
2022/06/28 08:55:51;;;;;;;5.23;4.07;;;24.00;99.90;;;;;;5115160;27;20499;-51
2022/06/28 08:58:19;;;;;;;4.03;3.73;;;25.20;99.90;;;;;;5114968;28;20445;-53
2022/06/28 09:00:47;;;;;;;3.80;3.50;;;25.30;99.90;;;;;;5115095;28;20474;-53
2022/06/28 09:03:15;;;;;;;6.27;4.17;;;24.70;99.90;;;;;;5115094;28;20478;-54
2022/06/28 09:05:43;;;;;;;6.30;4.30;;;23.90;99.90;;;;;;5114732;28;20448;-55
2022/06/28 09:08:10;;;;;;;4.23;3.90;;;23.20;99.90;;;;;;5114872;28;20509;-55
2022/06/28 09:10:38;;;;;;;4.63;4.33;;;22.70;99.90;;;;;;5114612;28;20981;-55
2022/06/28 09:13:07;;;;;;;5.60;4.10;;;22.40;99.90;;;;;;5107253;28;20471;-51
2022/06/28 09:15:50;;;;;;;4.10;3.70;;;22.70;99.90;;;;;;5094016;28;20447;-53
2022/06/28 09:18:18;;;;;;;4.13;3.67;;;22.80;99.90;;;;;;5094680;28;20460;-51
2022/06/28 09:20:51;;;;;;;3.70;3.40;;;23.00;99.90;;;;;;5094134;28;20512;-52
2022/06/28 09:23:24;;;;;;;8.77;3.80;;;23.10;99.90;;;;;;5094369;28;20467;-55
2022/06/28 09:25:52;;;;;;;3.50;3.20;;;23.90;99.90;;;;;;5094247;28;20443;-53
2022/06/28 09:28:28;;;;;;;3.73;2.80;;;23.70;99.90;;;;;;5093874;28;20434;-55
2022/06/28 09:31:14;;;;;;;4.40;4.00;;;24.00;99.90;;;;;;5093937;28;21007;-55
2022/06/28 09:33:42;;;;;;;3.97;3.57;;;23.60;99.90;;;;;;5093878;28;20442;-55
2022/06/28 09:36:17;;;;;;;3.07;2.87;;;23.60;99.90;;;;;;5094072;28;20448;-57
2022/06/28 09:38:44;;;;;;;3.77;3.47;;;;;;;;;;5094356;28;20511;-57
2022/06/28 09:41:22;;;;;;;3.90;3.60;;;25.10;99.90;;;;;;5094093;28;20550;-57
2022/06/28 09:43:58;;;;;;;3.80;3.33;;;24.70;99.90;;;;;;5106884;28;20921;-55
2022/06/28 09:46:27;;;;;;;3.97;2.93;;;24.30;99.90;;;;;;5114057;28;20419;-54
2022/06/28 09:48:59;;;;;;;4.20;3.70;;;23.80;99.90;;;;;;5114288;28;20455;-55
2022/06/28 09:51:30;;;;;;;3.07;2.87;;;23.40;99.90;;;;;;5113873;28;20945;-56
2022/06/28 09:54:02;;;;;;;3.80;3.50;;;23.70;99.90;;;;;;5114315;28;20446;-57
2022/06/28 09:56:31;;;;;;;3.60;3.37;;;23.90;99.90;;;;;;5114210;28;20431;-55
2022/06/28 09:58:59;;;;;;;3.87;3.10;;;25.00;99.90;;;;;;5113687;28;20453;-54
2022/06/28 10:01:26;;;;;;;2.90;2.70;;;26.30;99.90;;;;;;5113837;28;20903;-54
2022/06/28 10:03:54;;;;;;;3.60;3.30;;;26.80;99.90;;;;;;5113752;28;21013;-52
2022/06/28 10:06:22;;;;;;;2.87;2.53;;;26.60;99.90;;;;;;5114201;28;20529;-53
2022/06/28 10:08:51;;;;;;;4.07;3.10;;;25.70;99.90;;;;;;5114006;28;20444;-56
2022/06/28 10:11:18;;;;;;;3.60;3.27;;;25.00;99.90;;;;;;5113671;28;20472;-51
2022/06/28 10:16:46;;;;;;;3.93;3.33;;;24.10;99.90;;;;;;5093556;28;20403;-53
2022/06/28 10:19:14;;;;;;;3.20;3.00;;;24.70;99.90;;;;;;5093226;28;20542;-54
2022/06/28 10:21:46;;;;;;;3.20;2.90;;;25.00;99.90;;;;;;5093093;28;20528;-53
2022/06/28 10:24:15;;;;;;;3.43;2.70;;;25.70;99.90;;;;;;5093219;28;20457;-50
2022/06/28 10:26:46;;;;;;;3.57;3.27;;;25.70;99.90;;;;;;5093289;28;20451;-51
2022/06/28 10:29:15;;;;;;;4.13;3.47;;;26.20;99.90;;;;;;5093352;28;20467;-51
2022/06/28 10:31:43;;;;;;;3.17;2.93;;;26.60;99.90;;;;;;5093114;28;20447;-52
2022/06/28 10:34:12;;;;;;;4.97;3.17;;;26.10;99.90;;;;;;5093168;28;20479;-51
2022/06/28 10:36:51;;;;;;;4.20;2.80;;;26.00;99.90;;;;;;5092960;28;20500;-55
2022/06/28 10:39:22;;;;;;;3.10;2.90;;;25.80;99.90;;;;;;5092845;28;20465;-53
2022/06/28 10:41:51;;;;;;;3.17;2.97;;;25.40;99.90;;;;;;5092899;28;20451;-51
2022/06/28 10:44:21;;;;;;;5.70;3.40;;;24.90;99.90;;;;;;5110030;28;20526;-52
2022/06/28 10:46:57;;;;;;;3.40;3.10;;;24.70;99.90;;;;;;5113516;28;20493;-48
2022/06/28 10:49:24;;;;;;;3.00;2.70;;;25.10;99.90;;;;;;5113570;28;20469;-54
2022/06/28 10:52:15;;;;;;;2.73;2.53;;;25.30;99.90;;;;;;5112696;28;20933;-53
2022/06/28 10:55:22;;;;;;;2.77;2.47;;;26.10;99.90;;;;;;5092920;28;20432;-53
2022/06/28 10:57:50;;;;;;;2.70;2.50;;;26.80;99.90;;;;;;5092134;28;20462;-53
2022/06/28 11:00:26;;;;;;;3.10;2.90;;;26.30;99.90;;;;;;5090064;28;20464;-53
2022/06/28 11:03:01;;;;;;;2.80;2.60;;;26.10;99.90;;;;;;5092503;28;20467;-53
2022/06/28 11:05:47;;;;;;;2.60;2.40;;;25.90;99.90;;;;;;5092903;28;20474;-53
2022/06/28 11:08:50;;;;;;;3.20;2.53;;;25.50;99.90;;;;;;5093239;28;20427;-53
2022/06/28 11:11:19;;;;;;;2.90;2.70;;;25.30;99.90;;;;;;5030515;28;20430;-53
2022/06/28 11:13:46;;;;;;;2.73;2.53;;;24.90;99.90;;;;;;5077199;28;20511;-52
2022/06/28 11:16:46;;;;;;;3.80;2.80;;;25.30;99.90;;;;;;5092623;28;20543;-52
2022/06/28 11:19:14;;;;;;;4.03;2.47;;;25.40;99.90;;;;;;5091848;28;20474;-53
2022/06/28 11:21:44;;;;;;;2.87;2.40;;;25.90;99.90;;;;;;5092625;28;20997;-54
2022/06/28 11:24:12;;;;;;;2.53;2.33;;;25.70;99.90;;;;;;5091539;28;20868;-59
2022/06/28 11:29:26;;;;;;;2.50;2.30;;;25.70;99.90;;;;;;5092331;28;20465;-56
2022/06/28 11:31:53;;;;;;;1.90;1.80;;;26.20;99.90;;;;;;5092473;28;20450;-55
2022/06/28 11:34:25;;;;;;;2.90;2.17;;;25.90;99.90;;;;;;5092649;28;20443;-55
2022/06/28 11:36:55;;;;;;;2.73;2.40;;;25.30;99.90;;;;;;5092591;28;20447;-56
2022/06/28 11:39:24;;;;;;;2.70;2.17;;;25.70;99.90;;;;;;5092686;28;20836;-57
2022/06/28 11:41:54;;;;;;;3.00;2.80;;;26.00;99.90;;;;;;5092523;28;20545;-57
2022/06/28 11:44:23;;;;;;;2.00;1.80;;;25.90;99.90;;;;;;5092085;28;21028;-56
2022/06/28 11:46:51;;;;;;;2.50;2.27;;;25.90;99.90;;;;;;5092455;28;20444;-55
2022/06/28 11:49:27;;;;;;;2.27;2.07;;;25.80;99.90;;;;;;5092206;28;20542;-55
2022/06/28 11:51:54;;;;;;;2.27;2.07;;;25.70;99.90;;;;;;5096243;28;20518;-55
2022/06/28 11:54:22;;;;;;;2.10;2.00;;;25.80;99.90;;;;;;5095794;28;20534;-55
2022/06/28 11:56:49;;;;;;;2.30;2.10;;;25.50;99.90;;;;;;5095774;28;20535;-54
2022/06/28 11:59:18;;;;;;;2.10;1.90;;;25.50;99.90;;;;;;5095933;28;20489;-55
2022/06/28 12:01:46;;;;;;;2.13;1.93;;;25.40;99.90;;;;;;5096056;28;20447;-56
2022/06/28 12:04:21;;;;;;;2.30;2.17;;;25.50;99.90;;;;;;5095456;28;20489;-58
2022/06/28 12:06:48;;;;;;;2.87;2.30;;;25.70;99.90;;;;;;5095691;28;20430;-54
2022/06/28 12:09:16;;;;;;;2.53;2.10;;;25.90;99.90;;;;;;5096000;28;20467;-54
2022/06/28 12:11:47;;;;;;;2.53;2.23;;;25.90;99.90;;;;;;5095645;28;20931;-54
2022/06/28 12:14:18;;;;;;;2.07;1.87;;;26.10;99.90;;;;;;5095767;28;20503;-51
2022/06/28 12:16:47;;;;;;;2.53;2.00;;;25.60;99.90;;;;;;5095368;28;20447;-53
2022/06/28 12:19:16;;;;;;;3.53;2.00;;;25.60;99.90;;;;;;5095552;28;20546;-54
2022/06/28 12:21:59;;;;;;;2.13;1.93;;;25.10;99.90;;;;;;5095146;28;20490;-53
2022/06/28 12:24:39;;;;;;;2.50;2.23;;;24.70;99.90;;;;;;5095201;28;20470;-53
2022/06/28 12:27:06;;;;;;;3.10;2.43;;;24.60;99.90;;;;;;5095727;28;20438;-53
2022/06/28 12:29:35;;;;;;;1.83;1.70;;;24.50;99.90;;;;;;5095505;28;20472;-54
2022/06/28 12:32:02;;;;;;;5.27;2.97;;;24.80;99.90;;;;;;5095536;28;20522;-53
2022/06/28 12:34:30;;;;;;;3.00;2.20;;;25.00;99.90;;;;;;5095209;28;20922;-54
2022/06/28 12:36:57;;;;;;;2.90;2.53;;;25.40;99.90;;;;;;5095325;28;20483;-53
2022/06/28 12:39:25;;;;;;;3.33;2.33;;;25.60;99.90;;;;;;5095398;28;20470;-54
2022/06/28 12:41:52;;;;;;;2.03;1.83;;;25.20;99.90;;;;;;5095246;28;20483;-54
2022/06/28 12:44:19;;;;;;;2.10;1.83;;;25.10;99.90;;;;;;5094952;28;20491;-54
2022/06/28 12:46:51;;;;;;;4.23;2.13;;;24.90;99.90;;;;;;5094972;28;20562;-53
2022/06/28 12:49:18;;;;;;;2.30;2.10;;;24.90;99.90;;;;;;5095275;28;20491;-52
2022/06/28 12:51:46;;;;;;;3.07;2.30;;;25.00;99.90;;;;;;5095110;28;20459;-54
2022/06/28 12:54:13;;;;;;;2.90;2.43;;;25.00;99.90;;;;;;5095229;28;20456;-54
2022/06/28 12:56:40;;;;;;;4.40;2.33;;;25.00;99.90;;;;;;5094600;28;20465;-54
2022/06/28 12:59:08;;;;;;;3.10;2.23;;;25.10;99.90;;;;;;5094912;28;20507;-54
2022/06/28 13:01:36;;;;;;;3.60;2.40;;;25.20;99.90;;;;;;5094307;28;20547;-54
2022/06/28 13:04:05;;;;;;;2.20;2.00;;;25.20;99.90;;;;;;5094775;28;20479;-54
2022/06/28 13:06:32;;;;;;;3.10;2.33;;;25.10;99.90;;;;;;5094477;28;20443;-54
2022/06/28 13:08:59;;;;;;;4.13;2.20;;;25.50;99.90;;;;;;5094639;28;20921;-53
2022/06/28 13:11:27;;;;;;;5.30;1.97;;;25.50;99.90;;;;;;5094180;28;20447;-54